Preview of NWS' New Version of Forecast
This preview is not operational and should not be used for support decisions.

Terminal Aerodrome Forecast (TAF)

Issued by National Weather Service (NWS)

                            
000
FTUS46 KSEW 232057 AAA
TAFBLI
TAF AMD
KBLI 232057Z 2321/2418 36005KT P6SM VCSH OVC100
     FM240300 19004KT P6SM BKN120
     FM240700 17005KT P6SM BKN060 BKN100=